sensor_id;sensor_type;location;lat;lon;timestamp;P1;durP1;ratioP1;P2;durP2;ratioP2
64052;SDS011;50299;49.524;8.536;2022-12-31T00:01:24;0.88;;;0.88;;
64052;SDS011;50299;49.524;8.536;2022-12-31T00:03:51;1.83;;;1.00;;
64052;SDS011;50299;49.524;8.536;2022-12-31T00:08:50;1.10;;;1.10;;
64052;SDS011;50299;49.524;8.536;2022-12-31T00:11:18;1.10;;;1.00;;
64052;SDS011;50299;49.524;8.536;2022-12-31T00:13:45;0.88;;;0.88;;
64052;SDS011;50299;49.524;8.536;2022-12-31T00:16:13;0.80;;;0.80;;
64052;SDS011;50299;49.524;8.536;2022-12-31T00:18:44;1.40;;;0.77;;
64052;SDS011;50299;49.524;8.536;2022-12-31T00:21:12;1.45;;;0.90;;
64052;SDS011;50299;49.524;8.536;2022-12-31T00:23:39;1.13;;;1.00;;
64052;SDS011;50299;49.524;8.536;2022-12-31T00:26:10;1.25;;;1.15;;
64052;SDS011;50299;49.524;8.536;2022-12-31T00:28:39;1.08;;;1.00;;
64052;SDS011;50299;49.524;8.536;2022-12-31T00:31:08;2.65;;;0.90;;
64052;SDS011;50299;49.524;8.536;2022-12-31T00:33:34;1.00;;;0.90;;
64052;SDS011;50299;49.524;8.536;2022-12-31T00:36:09;1.15;;;1.05;;
64052;SDS011;50299;49.524;8.536;2022-12-31T00:38:41;1.00;;;1.00;;
64052;SDS011;50299;49.524;8.536;2022-12-31T00:41:08;1.00;;;0.93;;
64052;SDS011;50299;49.524;8.536;2022-12-31T00:43:35;1.10;;;1.10;;
64052;SDS011;50299;49.524;8.536;2022-12-31T00:46:02;1.30;;;1.00;;
64052;SDS011;50299;49.524;8.536;2022-12-31T00:48:29;1.08;;;1.08;;
64052;SDS011;50299;49.524;8.536;2022-12-31T00:50:56;1.10;;;0.98;;
64052;SDS011;50299;49.524;8.536;2022-12-31T00:53:23;1.20;;;1.10;;
64052;SDS011;50299;49.524;8.536;2022-12-31T00:55:50;0.90;;;0.90;;
64052;SDS011;50299;49.524;8.536;2022-12-31T00:58:17;1.02;;;0.90;;
64052;SDS011;50299;49.524;8.536;2022-12-31T01:00:44;3.55;;;1.20;;
64052;SDS011;50299;49.524;8.536;2022-12-31T01:03:10;0.88;;;0.88;;
64052;SDS011;50299;49.524;8.536;2022-12-31T01:05:36;1.48;;;1.10;;
64052;SDS011;50299;49.524;8.536;2022-12-31T01:08:03;1.27;;;1.17;;
64052;SDS011;50299;49.524;8.536;2022-12-31T01:10:30;1.88;;;1.10;;
64052;SDS011;50299;49.524;8.536;2022-12-31T01:13:15;1.20;;;1.00;;
64052;SDS011;50299;49.524;8.536;2022-12-31T01:15:41;1.65;;;1.02;;
64052;SDS011;50299;49.524;8.536;2022-12-31T01:18:08;2.00;;;1.00;;
64052;SDS011;50299;49.524;8.536;2022-12-31T01:20:35;1.98;;;1.40;;
64052;SDS011;50299;49.524;8.536;2022-12-31T01:23:03;1.27;;;1.17;;
64052;SDS011;50299;49.524;8.536;2022-12-31T01:25:29;2.22;;;1.05;;
64052;SDS011;50299;49.524;8.536;2022-12-31T01:27:55;1.20;;;1.10;;
64052;SDS011;50299;49.524;8.536;2022-12-31T01:30:22;1.30;;;1.20;;
64052;SDS011;50299;49.524;8.536;2022-12-31T01:32:48;2.35;;;1.23;;
64052;SDS011;50299;49.524;8.536;2022-12-31T01:35:14;1.35;;;1.25;;
64052;SDS011;50299;49.524;8.536;2022-12-31T01:37:41;1.02;;;1.00;;
64052;SDS011;50299;49.524;8.536;2022-12-31T01:40:07;1.13;;;1.08;;
64052;SDS011;50299;49.524;8.536;2022-12-31T01:42:34;1.25;;;1.10;;
64052;SDS011;50299;49.524;8.536;2022-12-31T01:45:00;1.17;;;1.08;;
64052;SDS011;50299;49.524;8.536;2022-12-31T01:47:33;0.95;;;0.95;;
64052;SDS011;50299;49.524;8.536;2022-12-31T01:50:07;1.80;;;1.08;;
64052;SDS011;50299;49.524;8.536;2022-12-31T01:52:42;2.38;;;1.10;;
64052;SDS011;50299;49.524;8.536;2022-12-31T01:57:57;0.93;;;0.88;;
64052;SDS011;50299;49.524;8.536;2022-12-31T02:00:30;1.40;;;1.10;;
64052;SDS011;50299;49.524;8.536;2022-12-31T02:02:58;2.35;;;1.00;;
64052;SDS011;50299;49.524;8.536;2022-12-31T02:08:06;0.90;;;0.90;;
64052;SDS011;50299;49.524;8.536;2022-12-31T02:10:33;1.33;;;1.00;;
64052;SDS011;50299;49.524;8.536;2022-12-31T02:12:59;0.80;;;0.80;;
64052;SDS011;50299;49.524;8.536;2022-12-31T02:15:49;1.02;;;0.93;;
64052;SDS011;50299;49.524;8.536;2022-12-31T02:18:26;1.10;;;1.00;;
64052;SDS011;50299;49.524;8.536;2022-12-31T02:29:22;1.45;;;0.93;;
64052;SDS011;50299;49.524;8.536;2022-12-31T02:32:20;1.00;;;1.00;;
64052;SDS011;50299;49.524;8.536;2022-12-31T02:35:26;1.00;;;0.82;;
64052;SDS011;50299;49.524;8.536;2022-12-31T02:38:02;1.50;;;0.93;;
64052;SDS011;50299;49.524;8.536;2022-12-31T02:40:35;2.05;;;1.15;;
64052;SDS011;50299;49.524;8.536;2022-12-31T02:43:03;1.27;;;1.17;;
64052;SDS011;50299;49.524;8.536;2022-12-31T02:48:16;2.05;;;1.00;;
64052;SDS011;50299;49.524;8.536;2022-12-31T02:56:36;1.52;;;1.10;;
64052;SDS011;50299;49.524;8.536;2022-12-31T03:02:13;0.90;;;0.90;;
64052;SDS011;50299;49.524;8.536;2022-12-31T03:04:49;1.20;;;1.10;;
64052;SDS011;50299;49.524;8.536;2022-12-31T03:07:18;0.95;;;0.95;;
64052;SDS011;50299;49.524;8.536;2022-12-31T03:09:48;1.85;;;1.00;;
64052;SDS011;50299;49.524;8.536;2022-12-31T03:12:14;1.02;;;0.88;;
64052;SDS011;50299;49.524;8.536;2022-12-31T03:15:01;1.67;;;1.13;;
64052;SDS011;50299;49.524;8.536;2022-12-31T03:17:32;1.63;;;1.08;;
64052;SDS011;50299;49.524;8.536;2022-12-31T03:19:59;2.00;;;1.17;;
64052;SDS011;50299;49.524;8.536;2022-12-31T03:22:47;2.53;;;1.15;;
64052;SDS011;50299;49.524;8.536;2022-12-31T03:25:15;2.05;;;1.48;;
64052;SDS011;50299;49.524;8.536;2022-12-31T03:28:05;1.05;;;0.90;;
64052;SDS011;50299;49.524;8.536;2022-12-31T03:30:41;1.77;;;1.00;;
64052;SDS011;50299;49.524;8.536;2022-12-31T03:33:09;2.15;;;1.10;;
64052;SDS011;50299;49.524;8.536;2022-12-31T03:35:37;1.77;;;1.08;;
64052;SDS011;50299;49.524;8.536;2022-12-31T03:38:05;1.40;;;1.00;;
64052;SDS011;50299;49.524;8.536;2022-12-31T03:40:35;1.98;;;1.25;;
64052;SDS011;50299;49.524;8.536;2022-12-31T03:43:03;1.17;;;1.08;;
64052;SDS011;50299;49.524;8.536;2022-12-31T03:45:30;1.30;;;1.00;;
64052;SDS011;50299;49.524;8.536;2022-12-31T03:47:56;1.27;;;1.17;;
64052;SDS011;50299;49.524;8.536;2022-12-31T03:50:22;1.65;;;1.10;;
64052;SDS011;50299;49.524;8.536;2022-12-31T03:52:49;2.38;;;1.38;;
64052;SDS011;50299;49.524;8.536;2022-12-31T03:55:15;4.22;;;1.48;;
64052;SDS011;50299;49.524;8.536;2022-12-31T03:57:42;2.88;;;1.30;;
64052;SDS011;50299;49.524;8.536;2022-12-31T04:00:09;2.83;;;1.58;;
64052;SDS011;50299;49.524;8.536;2022-12-31T04:02:38;1.65;;;1.30;;
64052;SDS011;50299;49.524;8.536;2022-12-31T04:05:05;2.05;;;1.40;;
64052;SDS011;50299;49.524;8.536;2022-12-31T04:07:32;1.40;;;1.30;;
64052;SDS011;50299;49.524;8.536;2022-12-31T04:09:59;1.88;;;1.60;;
64052;SDS011;50299;49.524;8.536;2022-12-31T04:12:25;2.63;;;1.02;;
64052;SDS011;50299;49.524;8.536;2022-12-31T04:14:51;1.90;;;1.35;;
64052;SDS011;50299;49.524;8.536;2022-12-31T04:17:18;1.13;;;1.00;;
64052;SDS011;50299;49.524;8.536;2022-12-31T04:19:44;1.40;;;1.05;;
64052;SDS011;50299;49.524;8.536;2022-12-31T04:22:10;1.65;;;1.17;;
64052;SDS011;50299;49.524;8.536;2022-12-31T04:24:37;1.98;;;1.13;;
64052;SDS011;50299;49.524;8.536;2022-12-31T04:27:03;1.52;;;1.00;;
64052;SDS011;50299;49.524;8.536;2022-12-31T04:29:33;1.90;;;1.10;;
64052;SDS011;50299;49.524;8.536;2022-12-31T04:32:00;1.10;;;1.00;;
64052;SDS011;50299;49.524;8.536;2022-12-31T04:34:27;1.38;;;1.27;;
64052;SDS011;50299;49.524;8.536;2022-12-31T04:36:53;1.17;;;1.08;;
64052;SDS011;50299;49.524;8.536;2022-12-31T04:39:20;1.15;;;0.90;;
64052;SDS011;50299;49.524;8.536;2022-12-31T04:41:46;0.82;;;0.82;;
64052;SDS011;50299;49.524;8.536;2022-12-31T04:44:13;2.40;;;1.08;;
64052;SDS011;50299;49.524;8.536;2022-12-31T04:46:39;2.88;;;1.13;;
64052;SDS011;50299;49.524;8.536;2022-12-31T04:49:06;1.50;;;0.90;;
64052;SDS011;50299;49.524;8.536;2022-12-31T04:51:32;2.10;;;1.02;;
64052;SDS011;50299;49.524;8.536;2022-12-31T04:53:59;2.45;;;1.10;;
64052;SDS011;50299;49.524;8.536;2022-12-31T04:56:26;1.15;;;0.98;;
64052;SDS011;50299;49.524;8.536;2022-12-31T04:58:53;1.27;;;0.98;;
64052;SDS011;50299;49.524;8.536;2022-12-31T05:01:20;1.75;;;1.13;;
64052;SDS011;50299;49.524;8.536;2022-12-31T05:03:47;1.55;;;1.10;;
64052;SDS011;50299;49.524;8.536;2022-12-31T05:06:15;1.00;;;0.90;;
64052;SDS011;50299;49.524;8.536;2022-12-31T05:08:43;1.33;;;0.85;;
64052;SDS011;50299;49.524;8.536;2022-12-31T05:11:10;1.58;;;0.98;;
64052;SDS011;50299;49.524;8.536;2022-12-31T05:13:37;0.80;;;0.80;;
64052;SDS011;50299;49.524;8.536;2022-12-31T05:16:04;2.25;;;1.02;;
64052;SDS011;50299;49.524;8.536;2022-12-31T05:18:32;1.08;;;1.02;;
64052;SDS011;50299;49.524;8.536;2022-12-31T05:20:59;0.98;;;0.88;;
64052;SDS011;50299;49.524;8.536;2022-12-31T05:23:25;0.70;;;0.70;;
64052;SDS011;50299;49.524;8.536;2022-12-31T05:25:52;2.85;;;0.90;;
64052;SDS011;50299;49.524;8.536;2022-12-31T05:28:18;2.22;;;1.05;;
64052;SDS011;50299;49.524;8.536;2022-12-31T05:30:47;1.65;;;1.50;;
64052;SDS011;50299;49.524;8.536;2022-12-31T05:33:16;1.95;;;1.00;;
64052;SDS011;50299;49.524;8.536;2022-12-31T05:35:44;1.50;;;1.40;;
64052;SDS011;50299;49.524;8.536;2022-12-31T05:38:10;2.25;;;1.02;;
64052;SDS011;50299;49.524;8.536;2022-12-31T05:40:37;1.23;;;1.10;;
64052;SDS011;50299;49.524;8.536;2022-12-31T05:43:03;1.08;;;1.02;;
64052;SDS011;50299;49.524;8.536;2022-12-31T05:45:29;1.38;;;1.27;;
64052;SDS011;50299;49.524;8.536;2022-12-31T05:47:56;1.73;;;1.00;;
64052;SDS011;50299;49.524;8.536;2022-12-31T05:50:23;2.35;;;1.17;;
64052;SDS011;50299;49.524;8.536;2022-12-31T05:52:49;0.80;;;0.80;;
64052;SDS011;50299;49.524;8.536;2022-12-31T05:55:16;2.47;;;0.90;;
64052;SDS011;50299;49.524;8.536;2022-12-31T05:57:42;1.23;;;1.15;;
64052;SDS011;50299;49.524;8.536;2022-12-31T06:00:09;1.48;;;1.05;;
64052;SDS011;50299;49.524;8.536;2022-12-31T06:02:36;1.13;;;1.02;;
64052;SDS011;50299;49.524;8.536;2022-12-31T06:05:03;1.58;;;1.15;;
64052;SDS011;50299;49.524;8.536;2022-12-31T06:07:30;1.15;;;1.10;;
64052;SDS011;50299;49.524;8.536;2022-12-31T06:09:56;0.80;;;0.80;;
64052;SDS011;50299;49.524;8.536;2022-12-31T06:12:22;0.93;;;0.88;;
64052;SDS011;50299;49.524;8.536;2022-12-31T06:14:49;2.25;;;0.93;;
64052;SDS011;50299;49.524;8.536;2022-12-31T06:17:15;1.15;;;1.05;;
64052;SDS011;50299;49.524;8.536;2022-12-31T06:19:42;1.38;;;1.00;;
64052;SDS011;50299;49.524;8.536;2022-12-31T06:22:08;0.90;;;0.90;;
64052;SDS011;50299;49.524;8.536;2022-12-31T06:24:34;0.90;;;0.88;;
64052;SDS011;50299;49.524;8.536;2022-12-31T06:27:00;1.67;;;0.90;;
64052;SDS011;50299;49.524;8.536;2022-12-31T06:29:27;1.77;;;0.88;;
64052;SDS011;50299;49.524;8.536;2022-12-31T06:31:53;2.30;;;0.70;;
64052;SDS011;50299;49.524;8.536;2022-12-31T06:34:19;1.17;;;0.90;;
64052;SDS011;50299;49.524;8.536;2022-12-31T06:36:46;1.17;;;0.80;;
64052;SDS011;50299;49.524;8.536;2022-12-31T06:39:12;0.85;;;0.85;;
64052;SDS011;50299;49.524;8.536;2022-12-31T06:41:38;2.83;;;1.10;;
64052;SDS011;50299;49.524;8.536;2022-12-31T06:44:05;2.20;;;1.08;;
64052;SDS011;50299;49.524;8.536;2022-12-31T06:46:31;1.25;;;0.82;;
64052;SDS011;50299;49.524;8.536;2022-12-31T06:48:57;0.95;;;0.82;;
64052;SDS011;50299;49.524;8.536;2022-12-31T06:51:24;1.48;;;1.00;;
64052;SDS011;50299;49.524;8.536;2022-12-31T06:53:50;0.93;;;0.82;;
64052;SDS011;50299;49.524;8.536;2022-12-31T06:56:18;0.88;;;0.88;;
64052;SDS011;50299;49.524;8.536;2022-12-31T06:58:51;0.70;;;0.70;;
64052;SDS011;50299;49.524;8.536;2022-12-31T07:01:29;0.88;;;0.88;;
64052;SDS011;50299;49.524;8.536;2022-12-31T07:07:02;1.08;;;0.98;;
64052;SDS011;50299;49.524;8.536;2022-12-31T07:12:27;1.23;;;1.15;;
64052;SDS011;50299;49.524;8.536;2022-12-31T07:15:03;1.20;;;1.15;;
64052;SDS011;50299;49.524;8.536;2022-12-31T07:22:39;1.05;;;0.90;;
64052;SDS011;50299;49.524;8.536;2022-12-31T07:25:06;0.80;;;0.80;;
64052;SDS011;50299;49.524;8.536;2022-12-31T07:27:41;1.67;;;1.00;;
64052;SDS011;50299;49.524;8.536;2022-12-31T07:30:19;0.85;;;0.80;;
64052;SDS011;50299;49.524;8.536;2022-12-31T07:38:54;1.45;;;0.90;;
64052;SDS011;50299;49.524;8.536;2022-12-31T07:41:32;1.20;;;0.93;;
64052;SDS011;50299;49.524;8.536;2022-12-31T07:47:21;1.30;;;1.20;;
64052;SDS011;50299;49.524;8.536;2022-12-31T07:49:50;1.10;;;1.00;;
64052;SDS011;50299;49.524;8.536;2022-12-31T07:52:17;1.17;;;1.00;;
64052;SDS011;50299;49.524;8.536;2022-12-31T07:54:44;3.83;;;1.33;;
64052;SDS011;50299;49.524;8.536;2022-12-31T07:57:11;1.75;;;1.05;;
64052;SDS011;50299;49.524;8.536;2022-12-31T08:02:49;1.65;;;1.02;;
64052;SDS011;50299;49.524;8.536;2022-12-31T08:05:49;0.85;;;0.85;;
64052;SDS011;50299;49.524;8.536;2022-12-31T08:08:48;1.20;;;1.05;;
64052;SDS011;50299;49.524;8.536;2022-12-31T08:14:23;1.35;;;1.25;;
64052;SDS011;50299;49.524;8.536;2022-12-31T08:16:50;1.25;;;1.17;;
64052;SDS011;50299;49.524;8.536;2022-12-31T08:19:27;1.23;;;1.08;;
64052;SDS011;50299;49.524;8.536;2022-12-31T08:22:11;1.08;;;1.05;;
64052;SDS011;50299;49.524;8.536;2022-12-31T08:24:53;1.60;;;1.50;;
64052;SDS011;50299;49.524;8.536;2022-12-31T08:27:41;1.65;;;1.00;;
64052;SDS011;50299;49.524;8.536;2022-12-31T08:30:12;1.17;;;1.08;;
64052;SDS011;50299;49.524;8.536;2022-12-31T08:32:49;1.98;;;1.30;;
64052;SDS011;50299;49.524;8.536;2022-12-31T08:35:32;1.95;;;1.08;;
64052;SDS011;50299;49.524;8.536;2022-12-31T08:38:29;2.70;;;1.00;;
64052;SDS011;50299;49.524;8.536;2022-12-31T08:41:18;2.05;;;1.15;;
64052;SDS011;50299;49.524;8.536;2022-12-31T08:43:49;3.00;;;1.33;;
64052;SDS011;50299;49.524;8.536;2022-12-31T08:46:48;2.10;;;1.30;;
64052;SDS011;50299;49.524;8.536;2022-12-31T08:49:24;2.45;;;1.20;;
64052;SDS011;50299;49.524;8.536;2022-12-31T08:51:52;2.63;;;1.17;;
64052;SDS011;50299;49.524;8.536;2022-12-31T08:54:19;1.55;;;1.20;;
64052;SDS011;50299;49.524;8.536;2022-12-31T08:59:41;1.40;;;1.08;;
64052;SDS011;50299;49.524;8.536;2022-12-31T09:02:38;1.58;;;1.05;;
64052;SDS011;50299;49.524;8.536;2022-12-31T09:10:35;1.98;;;1.45;;
64052;SDS011;50299;49.524;8.536;2022-12-31T09:18:40;1.25;;;1.15;;
64052;SDS011;50299;49.524;8.536;2022-12-31T09:21:08;1.55;;;1.13;;
64052;SDS011;50299;49.524;8.536;2022-12-31T09:23:36;1.55;;;1.45;;
64052;SDS011;50299;49.524;8.536;2022-12-31T09:26:10;1.20;;;1.08;;
64052;SDS011;50299;49.524;8.536;2022-12-31T09:34:29;1.55;;;1.45;;
64052;SDS011;50299;49.524;8.536;2022-12-31T09:37:03;3.47;;;1.60;;
64052;SDS011;50299;49.524;8.536;2022-12-31T09:39:40;3.90;;;1.27;;
64052;SDS011;50299;49.524;8.536;2022-12-31T09:42:24;3.70;;;1.30;;
64052;SDS011;50299;49.524;8.536;2022-12-31T09:45:19;1.20;;;1.10;;
64052;SDS011;50299;49.524;8.536;2022-12-31T10:00:00;50.10;;;3.63;;
64052;SDS011;50299;49.524;8.536;2022-12-31T10:28:24;1.27;;;1.10;;
64052;SDS011;50299;49.524;8.536;2022-12-31T10:31:24;1.90;;;1.30;;
64052;SDS011;50299;49.524;8.536;2022-12-31T10:46:23;1.48;;;1.13;;
64052;SDS011;50299;49.524;8.536;2022-12-31T10:49:06;3.00;;;1.20;;
64052;SDS011;50299;49.524;8.536;2022-12-31T10:57:18;1.30;;;1.20;;
64052;SDS011;50299;49.524;8.536;2022-12-31T11:00:10;3.53;;;1.27;;
64052;SDS011;50299;49.524;8.536;2022-12-31T11:06:04;1.52;;;1.20;;
64052;SDS011;50299;49.524;8.536;2022-12-31T11:17:35;1.95;;;1.30;;
64052;SDS011;50299;49.524;8.536;2022-12-31T11:23:34;2.10;;;1.15;;
64052;SDS011;50299;49.524;8.536;2022-12-31T11:28:49;1.35;;;1.25;;
64052;SDS011;50299;49.524;8.536;2022-12-31T11:31:22;2.20;;;1.50;;
64052;SDS011;50299;49.524;8.536;2022-12-31T11:36:43;1.27;;;1.10;;
64052;SDS011;50299;49.524;8.536;2022-12-31T11:45:25;1.30;;;1.17;;
64052;SDS011;50299;49.524;8.536;2022-12-31T11:48:23;2.10;;;1.02;;
64052;SDS011;50299;49.524;8.536;2022-12-31T11:56:58;2.22;;;1.25;;
64052;SDS011;50299;49.524;8.536;2022-12-31T11:59:26;2.75;;;1.40;;
64052;SDS011;50299;49.524;8.536;2022-12-31T12:04:42;1.75;;;1.10;;
64052;SDS011;50299;49.524;8.536;2022-12-31T12:07:11;1.77;;;1.38;;
64052;SDS011;50299;49.524;8.536;2022-12-31T12:09:39;2.95;;;1.58;;
64052;SDS011;50299;49.524;8.536;2022-12-31T12:12:08;2.35;;;1.13;;
64052;SDS011;50299;49.524;8.536;2022-12-31T12:14:37;1.42;;;1.17;;
64052;SDS011;50299;49.524;8.536;2022-12-31T12:17:09;1.83;;;1.30;;
64052;SDS011;50299;49.524;8.536;2022-12-31T12:19:44;1.55;;;1.10;;
64052;SDS011;50299;49.524;8.536;2022-12-31T12:22:13;0.93;;;0.93;;
64052;SDS011;50299;49.524;8.536;2022-12-31T12:24:53;2.65;;;1.30;;
64052;SDS011;50299;49.524;8.536;2022-12-31T12:27:29;1.40;;;1.27;;
64052;SDS011;50299;49.524;8.536;2022-12-31T12:30:06;1.30;;;1.15;;
64052;SDS011;50299;49.524;8.536;2022-12-31T12:33:00;4.97;;;1.25;;
64052;SDS011;50299;49.524;8.536;2022-12-31T12:35:31;1.35;;;1.25;;
64052;SDS011;50299;49.524;8.536;2022-12-31T12:38:02;1.20;;;1.08;;
64052;SDS011;50299;49.524;8.536;2022-12-31T12:40:31;1.45;;;1.20;;
64052;SDS011;50299;49.524;8.536;2022-12-31T12:43:00;1.17;;;1.08;;
64052;SDS011;50299;49.524;8.536;2022-12-31T12:45:41;2.20;;;1.17;;
64052;SDS011;50299;49.524;8.536;2022-12-31T12:48:23;2.30;;;1.20;;
64052;SDS011;50299;49.524;8.536;2022-12-31T12:50:56;3.30;;;1.65;;
64052;SDS011;50299;49.524;8.536;2022-12-31T12:53:30;1.80;;;1.17;;
64052;SDS011;50299;49.524;8.536;2022-12-31T12:56:32;2.00;;;1.10;;
64052;SDS011;50299;49.524;8.536;2022-12-31T12:59:37;3.22;;;1.20;;
64052;SDS011;50299;49.524;8.536;2022-12-31T13:13:38;1.25;;;1.10;;
64052;SDS011;50299;49.524;8.536;2022-12-31T13:16:31;1.45;;;1.25;;
64052;SDS011;50299;49.524;8.536;2022-12-31T13:22:43;1.98;;;0.90;;
64052;SDS011;50299;49.524;8.536;2022-12-31T13:28:40;2.55;;;1.50;;
64052;SDS011;50299;49.524;8.536;2022-12-31T13:31:10;2.65;;;1.30;;
64052;SDS011;50299;49.524;8.536;2022-12-31T13:33:42;1.15;;;1.02;;
64052;SDS011;50299;49.524;8.536;2022-12-31T13:36:13;1.13;;;1.02;;
64052;SDS011;50299;49.524;8.536;2022-12-31T13:38:47;6.75;;;4.22;;
64052;SDS011;50299;49.524;8.536;2022-12-31T13:41:29;3.20;;;2.38;;
64052;SDS011;50299;49.524;8.536;2022-12-31T13:49:40;4.63;;;1.38;;
64052;SDS011;50299;49.524;8.536;2022-12-31T13:55:10;1.25;;;1.15;;
64052;SDS011;50299;49.524;8.536;2022-12-31T13:57:50;1.13;;;1.08;;
64052;SDS011;50299;49.524;8.536;2022-12-31T14:00:34;1.88;;;1.10;;
64052;SDS011;50299;49.524;8.536;2022-12-31T14:03:13;1.40;;;1.30;;
64052;SDS011;50299;49.524;8.536;2022-12-31T14:08:20;1.80;;;1.13;;
64052;SDS011;50299;49.524;8.536;2022-12-31T14:11:04;4.63;;;1.40;;
64052;SDS011;50299;49.524;8.536;2022-12-31T14:16:31;4.00;;;1.38;;
64052;SDS011;50299;49.524;8.536;2022-12-31T14:22:42;34.17;;;2.90;;
64052;SDS011;50299;49.524;8.536;2022-12-31T14:25:22;4.40;;;1.35;;
64052;SDS011;50299;49.524;8.536;2022-12-31T14:27:54;3.78;;;1.38;;
64052;SDS011;50299;49.524;8.536;2022-12-31T14:30:24;1.45;;;1.35;;
64052;SDS011;50299;49.524;8.536;2022-12-31T14:38:09;3.47;;;1.77;;
64052;SDS011;50299;49.524;8.536;2022-12-31T14:54:40;2.10;;;1.38;;
64052;SDS011;50299;49.524;8.536;2022-12-31T14:57:10;2.10;;;1.90;;
64052;SDS011;50299;49.524;8.536;2022-12-31T15:02:55;1.20;;;1.10;;
64052;SDS011;50299;49.524;8.536;2022-12-31T15:05:23;1.13;;;1.02;;
64052;SDS011;50299;49.524;8.536;2022-12-31T15:07:55;2.10;;;1.42;;
64052;SDS011;50299;49.524;8.536;2022-12-31T15:10:46;1.63;;;1.40;;
64052;SDS011;50299;49.524;8.536;2022-12-31T15:19:26;1.40;;;1.30;;
64052;SDS011;50299;49.524;8.536;2022-12-31T15:25:18;1.42;;;1.27;;
64052;SDS011;50299;49.524;8.536;2022-12-31T15:27:49;1.35;;;1.25;;
64052;SDS011;50299;49.524;8.536;2022-12-31T15:30:30;1.98;;;1.10;;
64052;SDS011;50299;49.524;8.536;2022-12-31T15:33:01;1.58;;;1.23;;
64052;SDS011;50299;49.524;8.536;2022-12-31T15:35:31;1.45;;;1.35;;
64052;SDS011;50299;49.524;8.536;2022-12-31T15:38:30;2.20;;;1.55;;
64052;SDS011;50299;49.524;8.536;2022-12-31T15:43:46;4.35;;;1.77;;
64052;SDS011;50299;49.524;8.536;2022-12-31T15:46:18;1.70;;;1.50;;
64052;SDS011;50299;49.524;8.536;2022-12-31T15:48:49;1.40;;;1.30;;
64052;SDS011;50299;49.524;8.536;2022-12-31T15:51:31;1.95;;;1.73;;
64052;SDS011;50299;49.524;8.536;2022-12-31T15:54:01;3.20;;;2.00;;
64052;SDS011;50299;49.524;8.536;2022-12-31T15:56:32;2.38;;;2.17;;
64052;SDS011;50299;49.524;8.536;2022-12-31T15:59:03;2.03;;;1.83;;
64052;SDS011;50299;49.524;8.536;2022-12-31T16:01:36;3.05;;;1.80;;
64052;SDS011;50299;49.524;8.536;2022-12-31T16:06:59;1.65;;;1.55;;
64052;SDS011;50299;49.524;8.536;2022-12-31T16:09:31;2.13;;;1.65;;
64052;SDS011;50299;49.524;8.536;2022-12-31T16:11:59;1.80;;;1.70;;
64052;SDS011;50299;49.524;8.536;2022-12-31T16:17:02;2.05;;;1.85;;
64052;SDS011;50299;49.524;8.536;2022-12-31T16:19:31;2.10;;;1.90;;
64052;SDS011;50299;49.524;8.536;2022-12-31T16:22:01;2.42;;;1.85;;
64052;SDS011;50299;49.524;8.536;2022-12-31T16:24:33;2.08;;;1.88;;
64052;SDS011;50299;49.524;8.536;2022-12-31T16:27:23;2.15;;;1.95;;
64052;SDS011;50299;49.524;8.536;2022-12-31T16:29:56;1.85;;;1.75;;
64052;SDS011;50299;49.524;8.536;2022-12-31T16:32:24;2.40;;;2.20;;
64052;SDS011;50299;49.524;8.536;2022-12-31T16:34:58;3.17;;;2.47;;
64052;SDS011;50299;49.524;8.536;2022-12-31T16:37:26;2.00;;;1.90;;
64052;SDS011;50299;49.524;8.536;2022-12-31T16:42:26;2.78;;;2.28;;
64052;SDS011;50299;49.524;8.536;2022-12-31T16:44:57;2.30;;;2.10;;
64052;SDS011;50299;49.524;8.536;2022-12-31T16:47:45;2.38;;;2.17;;
64052;SDS011;50299;49.524;8.536;2022-12-31T16:50:15;3.40;;;2.67;;
64052;SDS011;50299;49.524;8.536;2022-12-31T16:52:44;3.25;;;2.95;;
64052;SDS011;50299;49.524;8.536;2022-12-31T16:55:15;3.67;;;2.72;;
64052;SDS011;50299;49.524;8.536;2022-12-31T16:57:48;2.70;;;2.47;;
64052;SDS011;50299;49.524;8.536;2022-12-31T17:00:19;3.13;;;2.80;;
64052;SDS011;50299;49.524;8.536;2022-12-31T17:03:05;3.05;;;2.72;;
64052;SDS011;50299;49.524;8.536;2022-12-31T17:13:59;3.35;;;2.83;;
64052;SDS011;50299;49.524;8.536;2022-12-31T17:16:33;4.32;;;3.13;;
64052;SDS011;50299;49.524;8.536;2022-12-31T17:19:01;4.88;;;3.17;;
64052;SDS011;50299;49.524;8.536;2022-12-31T17:21:29;3.65;;;3.35;;
64052;SDS011;50299;49.524;8.536;2022-12-31T17:24:00;4.70;;;3.15;;
64052;SDS011;50299;49.524;8.536;2022-12-31T17:26:30;58.03;;;15.30;;
64052;SDS011;50299;49.524;8.536;2022-12-31T17:28:58;3.45;;;3.15;;
64052;SDS011;50299;49.524;8.536;2022-12-31T17:31:34;4.50;;;4.10;;
64052;SDS011;50299;49.524;8.536;2022-12-31T17:34:17;4.75;;;3.85;;
64052;SDS011;50299;49.524;8.536;2022-12-31T17:37:01;4.47;;;4.07;;
64052;SDS011;50299;49.524;8.536;2022-12-31T17:39:43;5.57;;;4.22;;
64052;SDS011;50299;49.524;8.536;2022-12-31T17:42:20;4.47;;;3.97;;
64052;SDS011;50299;49.524;8.536;2022-12-31T17:45:07;5.80;;;4.13;;
64052;SDS011;50299;49.524;8.536;2022-12-31T17:47:47;7.88;;;5.10;;
64052;SDS011;50299;49.524;8.536;2022-12-31T17:53:00;9.45;;;7.22;;
64052;SDS011;50299;49.524;8.536;2022-12-31T17:55:39;5.72;;;4.93;;
64052;SDS011;50299;49.524;8.536;2022-12-31T17:58:11;4.45;;;3.65;;
64052;SDS011;50299;49.524;8.536;2022-12-31T18:00:42;5.10;;;3.67;;
64052;SDS011;50299;49.524;8.536;2022-12-31T18:03:09;4.25;;;3.75;;
64052;SDS011;50299;49.524;8.536;2022-12-31T18:05:36;5.63;;;4.10;;
64052;SDS011;50299;49.524;8.536;2022-12-31T18:08:02;7.50;;;4.20;;
64052;SDS011;50299;49.524;8.536;2022-12-31T18:10:29;6.93;;;5.53;;
64052;SDS011;50299;49.524;8.536;2022-12-31T18:13:01;9.25;;;7.75;;
64052;SDS011;50299;49.524;8.536;2022-12-31T18:15:30;6.00;;;5.15;;
64052;SDS011;50299;49.524;8.536;2022-12-31T18:18:05;9.35;;;6.85;;
64052;SDS011;50299;49.524;8.536;2022-12-31T18:20:54;7.75;;;6.35;;
64052;SDS011;50299;49.524;8.536;2022-12-31T18:23:27;8.40;;;7.35;;
64052;SDS011;50299;49.524;8.536;2022-12-31T18:25:57;9.45;;;7.30;;
64052;SDS011;50299;49.524;8.536;2022-12-31T18:28:24;7.70;;;6.97;;
64052;SDS011;50299;49.524;8.536;2022-12-31T18:30:51;9.23;;;7.05;;
64052;SDS011;50299;49.524;8.536;2022-12-31T18:33:18;9.93;;;7.05;;
64052;SDS011;50299;49.524;8.536;2022-12-31T18:35:50;12.57;;;8.90;;
64052;SDS011;50299;49.524;8.536;2022-12-31T18:38:34;9.55;;;7.90;;
64052;SDS011;50299;49.524;8.536;2022-12-31T18:41:01;7.40;;;6.70;;
64052;SDS011;50299;49.524;8.536;2022-12-31T18:43:27;8.43;;;5.93;;
64052;SDS011;50299;49.524;8.536;2022-12-31T18:45:53;6.97;;;5.57;;
64052;SDS011;50299;49.524;8.536;2022-12-31T18:48:20;6.38;;;5.40;;
64052;SDS011;50299;49.524;8.536;2022-12-31T18:50:46;5.65;;;5.05;;
64052;SDS011;50299;49.524;8.536;2022-12-31T18:53:14;5.60;;;4.68;;
64052;SDS011;50299;49.524;8.536;2022-12-31T18:55:46;5.68;;;4.28;;
64052;SDS011;50299;49.524;8.536;2022-12-31T18:58:14;5.22;;;4.57;;
64052;SDS011;50299;49.524;8.536;2022-12-31T19:00:41;5.63;;;5.00;;
64052;SDS011;50299;49.524;8.536;2022-12-31T19:03:13;5.43;;;4.30;;
64052;SDS011;50299;49.524;8.536;2022-12-31T19:05:41;6.63;;;4.78;;
64052;SDS011;50299;49.524;8.536;2022-12-31T19:08:08;5.28;;;3.97;;
64052;SDS011;50299;49.524;8.536;2022-12-31T19:10:34;6.10;;;4.57;;
64052;SDS011;50299;49.524;8.536;2022-12-31T19:13:01;7.45;;;5.65;;
64052;SDS011;50299;49.524;8.536;2022-12-31T19:15:29;6.07;;;4.82;;
64052;SDS011;50299;49.524;8.536;2022-12-31T19:18:04;4.47;;;4.07;;
64052;SDS011;50299;49.524;8.536;2022-12-31T19:20:30;5.90;;;4.20;;
64052;SDS011;50299;49.524;8.536;2022-12-31T19:22:56;5.28;;;4.82;;
64052;SDS011;50299;49.524;8.536;2022-12-31T19:25:24;5.07;;;4.18;;
64052;SDS011;50299;49.524;8.536;2022-12-31T19:27:52;6.50;;;4.82;;
64052;SDS011;50299;49.524;8.536;2022-12-31T19:30:23;5.63;;;4.82;;
64052;SDS011;50299;49.524;8.536;2022-12-31T19:32:59;6.32;;;4.97;;